Time;durP1;ratioP1;P1;durP2;ratioP2;P2;SDS_P1;SDS_P2;PMS_P1;PMS_P2;Temp;Humidity;BMP_temperature;BMP_pressure;BME280_temperature;BME280_humidity;BME280_pressure;Samples;Min_cycle;Max_cycle;Signal;HPM_P1;HPM_P2
2021/03/04 00:00:09;;;;;;;73.77;29.63;;;7.60;99.90;;;;;;5015267;28;20200;-79
2021/03/04 00:02:36;;;;;;;77.73;29.53;;;7.70;99.90;;;;;;5028798;28;20215;-80
2021/03/04 00:05:04;;;;;;;77.83;30.77;;;7.80;99.90;;;;;;5029725;28;20284;-80
2021/03/04 00:07:31;;;;;;;73.23;29.83;;;7.70;99.90;;;;;;5018715;28;20233;-80
2021/03/04 00:09:57;;;;;;;86.43;32.20;;;7.60;99.90;;;;;;5026478;28;20269;-80
2021/03/04 00:12:23;;;;;;;84.87;32.23;;;7.50;99.90;;;;;;5046238;28;20255;-78
2021/03/04 00:14:50;;;;;;;85.80;29.97;;;7.80;99.90;;;;;;5011725;28;20639;-78
2021/03/04 00:17:16;;;;;;;86.63;31.40;;;7.80;99.90;;;;;;5030366;28;20213;-78
2021/03/04 00:19:43;;;;;;;78.37;31.03;;;7.70;99.90;;;;;;5029141;28;20728;-78
2021/03/04 00:22:10;;;;;;;80.33;30.47;;;7.70;99.90;;;;;;5042959;28;20309;-78
2021/03/04 00:24:36;;;;;;;82.23;31.10;;;7.70;99.90;;;;;;5014531;28;20211;-79
2021/03/04 00:27:03;;;;;;;74.47;29.60;;;7.60;99.90;;;;;;5016042;28;20270;-79
2021/03/04 00:29:29;;;;;;;78.67;29.90;;;7.50;99.90;;;;;;5033528;28;20206;-79
2021/03/04 00:31:55;;;;;;;78.03;31.87;;;7.50;99.90;;;;;;5013999;28;20256;-79
2021/03/04 00:34:22;;;;;;;77.80;31.63;;;7.20;99.90;;;;;;5028873;28;20211;-79
2021/03/04 00:36:48;;;;;;;79.83;31.03;;;7.30;99.90;;;;;;5022855;28;20430;-79
2021/03/04 00:39:15;;;;;;;76.60;30.43;;;7.40;99.90;;;;;;5013214;28;20241;-79
2021/03/04 00:41:41;;;;;;;82.73;31.33;;;7.20;99.90;;;;;;5028504;28;20397;-79
2021/03/04 00:44:08;;;;;;;82.37;32.63;;;7.30;99.90;;;;;;5039562;28;20593;-79
2021/03/04 00:46:35;;;;;;;82.73;30.93;;;7.30;99.90;;;;;;5033778;28;20566;-80
2021/03/04 00:49:02;;;;;;;74.57;30.73;;;7.40;99.90;;;;;;5027711;28;20641;-78
2021/03/04 00:51:29;;;;;;;81.07;32.43;;;7.30;99.90;;;;;;5015955;28;20586;-79
2021/03/04 00:53:56;;;;;;;81.20;31.87;;;7.20;99.90;;;;;;5044076;28;20260;-79
2021/03/04 00:56:22;;;;;;;74.37;29.60;;;7.20;99.90;;;;;;5030021;28;20660;-79
2021/03/04 00:58:48;;;;;;;74.27;30.57;;;7.40;99.90;;;;;;5043710;28;20388;-79
2021/03/04 01:01:18;;;;;;;75.03;31.90;;;7.50;99.90;;;;;;5033048;28;20215;-79
2021/03/04 01:03:45;;;;;;;88.30;32.03;;;7.50;99.90;;;;;;5030222;28;20630;-80
2021/03/04 01:06:14;;;;;;;81.03;31.67;;;7.40;99.90;;;;;;5026698;28;20229;-79
2021/03/04 01:08:41;;;;;;;75.33;32.07;;;7.50;99.90;;;;;;5058998;28;20211;-80
2021/03/04 01:11:07;;;;;;;84.50;32.73;;;7.50;99.90;;;;;;5051703;28;20260;-80
2021/03/04 01:13:34;;;;;;;86.73;34.47;;;7.40;99.90;;;;;;5039403;28;20554;-80
2021/03/04 01:16:00;;;;;;;84.60;35.57;;;7.40;99.90;;;;;;5072334;28;20280;-78
2021/03/04 01:18:27;;;;;;;81.47;32.63;;;7.30;99.90;;;;;;5066793;28;20234;-80
2021/03/04 01:20:54;;;;;;;79.43;30.97;;;7.30;99.90;;;;;;5052982;28;20233;-79
2021/03/04 01:23:20;;;;;;;79.37;33.27;;;7.30;99.90;;;;;;5064174;28;20223;-79
2021/03/04 01:25:47;;;;;;;82.57;31.93;;;7.10;99.90;;;;;;5065916;28;20197;-79
2021/03/04 01:28:14;;;;;;;87.50;36.10;;;7.30;99.90;;;;;;5060035;28;20299;-79
2021/03/04 01:30:41;;;;;;;86.83;32.60;;;7.30;99.90;;;;;;5059006;28;20200;-79
2021/03/04 01:33:17;;;;;;;89.10;34.20;;;7.40;99.90;;;;;;5048549;28;20267;-79
2021/03/04 01:35:44;;;;;;;81.97;35.20;;;7.30;99.90;;;;;;5049981;28;20273;-78
2021/03/04 01:38:12;;;;;;;74.80;32.57;;;7.40;99.90;;;;;;5037088;28;20573;-79
2021/03/04 01:40:39;;;;;;;82.47;31.43;;;7.30;99.90;;;;;;5047069;28;20224;-78
2021/03/04 01:43:05;;;;;;;82.43;33.10;;;7.20;99.90;;;;;;5042584;28;20222;-78
2021/03/04 01:45:32;;;;;;;83.83;32.23;;;7.40;99.90;;;;;;5052409;28;20292;-78
2021/03/04 01:48:01;;;;;;;86.47;33.43;;;7.40;99.90;;;;;;5050527;28;20271;-78
2021/03/04 01:50:29;;;;;;;91.20;36.80;;;7.40;99.90;;;;;;5064961;28;20272;-79
2021/03/04 01:52:56;;;;;;;95.20;33.97;;;7.40;99.90;;;;;;5061712;28;20287;-78
2021/03/04 01:55:23;;;;;;;83.33;32.97;;;7.40;99.90;;;;;;5046726;28;20274;-79
2021/03/04 01:57:50;;;;;;;93.77;35.07;;;7.20;99.90;;;;;;5049277;28;20728;-79
2021/03/04 02:00:19;;;;;;;91.53;35.03;;;7.40;99.90;;;;;;5053763;28;20261;-80
2021/03/04 02:02:46;;;;;;;100.23;37.33;;;7.40;99.90;;;;;;5062492;28;20359;-79
2021/03/04 02:05:15;;;;;;;94.83;38.67;;;7.20;99.90;;;;;;5048173;28;20301;-80
2021/03/04 02:07:55;;;;;;;93.70;36.33;;;7.10;99.90;;;;;;5052614;28;20231;-77
2021/03/04 02:10:36;;;;;;;91.70;35.80;;;6.80;99.90;;;;;;5067557;28;20253;-79
2021/03/04 02:13:10;;;;;;;84.90;34.40;;;7.00;99.90;;;;;;5069121;28;20200;-79
2021/03/04 02:15:49;;;;;;;83.40;33.90;;;7.20;99.90;;;;;;5051178;28;20340;-79
2021/03/04 02:18:19;;;;;;;83.97;35.37;;;7.20;99.90;;;;;;5060588;28;21010;-79
2021/03/04 02:20:49;;;;;;;88.90;35.63;;;7.10;99.90;;;;;;5047162;28;20246;-79
2021/03/04 02:24:06;;;;;;;97.03;36.73;;;7.20;99.90;;;;;;5053031;28;20289;-79
2021/03/04 02:26:39;;;;;;;89.03;33.97;;;7.20;99.90;;;;;;5031103;28;20650;-78
2021/03/04 02:29:07;;;;;;;107.67;36.73;;;7.00;99.90;;;;;;5040928;28;20200;-80
2021/03/04 02:31:36;;;;;;;94.57;37.27;;;7.10;99.90;;;;;;5047824;28;20206;-80
2021/03/04 02:34:05;;;;;;;108.50;38.90;;;7.20;99.90;;;;;;5058926;28;20310;-80
2021/03/04 02:36:39;;;;;;;106.03;38.33;;;7.00;99.90;;;;;;5071866;28;20272;-80
2021/03/04 02:39:07;;;;;;;97.80;37.97;;;6.80;99.90;;;;;;5060797;28;20269;-79
2021/03/04 02:41:35;;;;;;;97.63;38.33;;;6.70;99.90;;;;;;5051863;28;20281;-79
2021/03/04 02:44:04;;;;;;;89.77;33.80;;;6.80;99.90;;;;;;5065275;28;20710;-78
2021/03/04 02:46:33;;;;;;;86.90;36.97;;;6.80;99.90;;;;;;5042399;28;20643;-77
2021/03/04 02:49:01;;;;;;;89.07;35.20;;;6.70;99.90;;;;;;5053265;28;20253;-78
2021/03/04 02:51:29;;;;;;;93.63;35.77;;;6.70;99.90;;;;;;5052259;28;20207;-79
2021/03/04 02:53:58;;;;;;;100.20;36.50;;;7.00;99.90;;;;;;5054069;28;20252;-78
2021/03/04 02:56:25;;;;;;;96.30;35.77;;;7.00;99.90;;;;;;5048529;28;20197;-79
2021/03/04 02:58:54;;;;;;;97.03;37.20;;;7.00;99.90;;;;;;5051696;28;20241;-79
2021/03/04 03:01:22;;;;;;;103.07;35.20;;;7.00;99.90;;;;;;5063264;28;20206;-79
2021/03/04 03:03:50;;;;;;;94.73;34.73;;;7.00;99.90;;;;;;5060375;28;20289;-81
2021/03/04 03:06:17;;;;;;;98.17;34.17;;;6.90;99.90;;;;;;5061231;28;20268;-80
2021/03/04 03:08:45;;;;;;;100.50;36.17;;;6.80;99.90;;;;;;5045114;28;20694;-80
2021/03/04 03:11:16;;;;;;;101.70;37.93;;;6.90;99.90;;;;;;5048963;28;20229;-79
2021/03/04 03:13:46;;;;;;;104.13;37.00;;;7.00;99.90;;;;;;5071804;28;20551;-80
2021/03/04 03:16:13;;;;;;;108.87;37.53;;;6.80;99.90;;;;;;5041427;28;20268;-81
2021/03/04 03:18:39;;;;;;;92.03;34.83;;;7.00;99.90;;;;;;5038669;28;20692;-80
2021/03/04 03:21:06;;;;;;;95.97;34.70;;;6.80;99.90;;;;;;5029995;28;20293;-78
2021/03/04 03:23:32;;;;;;;93.27;35.67;;;6.70;99.90;;;;;;5047984;28;20600;-79
2021/03/04 03:25:59;;;;;;;95.27;35.33;;;6.70;99.90;;;;;;5048019;28;20238;-80
2021/03/04 03:28:25;;;;;;;94.53;35.00;;;6.80;99.90;;;;;;5035189;28;20253;-80
2021/03/04 03:30:53;;;;;;;95.67;33.27;;;6.80;99.90;;;;;;5062568;28;20708;-78
2021/03/04 03:33:21;;;;;;;81.57;33.03;;;6.70;99.90;;;;;;5033448;28;20203;-78
2021/03/04 03:35:48;;;;;;;86.87;33.90;;;6.70;99.90;;;;;;5061370;28;20582;-79
2021/03/04 03:38:16;;;;;;;94.23;32.57;;;6.60;99.90;;;;;;5050510;28;20203;-80
2021/03/04 03:40:47;;;;;;;86.37;34.90;;;6.70;99.90;;;;;;5059895;28;20211;-80
2021/03/04 03:43:16;;;;;;;93.47;32.40;;;6.50;99.90;;;;;;5068384;28;20369;-80
2021/03/04 03:45:45;;;;;;;77.33;32.10;;;6.60;99.90;;;;;;5054077;28;20201;-81
2021/03/04 03:48:15;;;;;;;82.00;34.20;;;6.60;99.90;;;;;;5067577;28;20199;-81
2021/03/04 03:50:42;;;;;;;89.50;32.50;;;6.80;99.90;;;;;;5071526;28;20204;-81
2021/03/04 03:53:12;;;;;;;96.43;35.30;;;6.80;99.90;;;;;;5059234;28;20209;-79
2021/03/04 03:55:40;;;;;;;87.33;32.60;;;6.90;99.90;;;;;;5067411;28;20207;-80
2021/03/04 03:58:07;;;;;;;92.00;34.03;;;6.70;99.90;;;;;;5049538;28;20297;-80
2021/03/04 04:00:34;;;;;;;90.20;34.73;;;6.80;99.90;;;;;;5048719;28;20723;-80
2021/03/04 04:03:03;;;;;;;97.43;33.20;;;7.00;99.90;;;;;;5063798;28;21205;-79
2021/03/04 04:05:31;;;;;;;80.67;30.67;;;6.90;99.90;;;;;;5047829;28;20670;-79
2021/03/04 04:07:58;;;;;;;91.57;33.53;;;7.00;99.90;;;;;;5037638;28;20296;-79
2021/03/04 04:10:30;;;;;;;74.47;32.43;;;6.90;99.90;;;;;;5032432;28;20350;-80
2021/03/04 04:13:00;;;;;;;81.70;30.70;;;6.90;99.90;;;;;;5046164;28;20201;-79
2021/03/04 04:15:29;;;;;;;85.37;31.23;;;6.80;99.90;;;;;;5048228;28;20615;-80
2021/03/04 04:17:58;;;;;;;81.70;32.07;;;6.80;99.90;;;;;;5045201;28;20284;-79
2021/03/04 04:20:45;;;;;;;85.17;30.80;;;6.80;99.90;;;;;;5053608;28;20205;-80
2021/03/04 04:23:12;;;;;;;86.27;30.00;;;6.80;99.90;;;;;;5075892;28;20265;-79
2021/03/04 04:25:51;;;;;;;79.20;28.03;;;6.80;99.90;;;;;;5050326;28;20207;-79
2021/03/04 04:28:18;;;;;;;82.00;31.30;;;6.70;99.90;;;;;;5047617;28;20207;-80
2021/03/04 04:30:45;;;;;;;81.77;26.27;;;6.80;99.90;;;;;;5049674;28;20250;-79
2021/03/04 04:33:11;;;;;;;69.30;28.87;;;6.60;99.90;;;;;;5028727;28;20283;-79
2021/03/04 04:35:38;;;;;;;70.93;25.40;;;6.60;99.90;;;;;;5050373;28;20634;-79
2021/03/04 04:38:04;;;;;;;69.20;26.27;;;6.60;99.90;;;;;;5063957;28;20726;-79
2021/03/04 04:40:31;;;;;;;60.10;23.43;;;6.60;99.90;;;;;;5039014;28;20618;-79
2021/03/04 04:42:57;;;;;;;58.03;24.07;;;6.30;99.90;;;;;;5062911;28;20234;-79
2021/03/04 04:45:24;;;;;;;60.60;24.00;;;6.30;99.90;;;;;;5065152;28;21050;-80
2021/03/04 04:47:50;;;;;;;46.07;19.50;;;6.50;99.90;;;;;;5052492;28;20197;-80
2021/03/04 04:50:17;;;;;;;43.33;18.57;;;6.30;99.90;;;;;;5049803;28;20291;-78
2021/03/04 04:52:44;;;;;;;37.00;17.33;;;6.20;99.90;;;;;;5045646;28;20623;-79
2021/03/04 04:55:10;;;;;;;31.93;17.03;;;6.20;99.90;;;;;;5044366;28;20284;-78
2021/03/04 04:57:37;;;;;;;44.00;18.03;;;6.20;99.90;;;;;;5057000;28;20225;-79
2021/03/04 05:00:06;;;;;;;38.53;17.00;;;6.30;99.90;;;;;;5026141;28;20285;-79
2021/03/04 05:02:32;;;;;;;32.20;15.63;;;6.40;99.90;;;;;;5059481;28;20220;-78
2021/03/04 05:04:59;;;;;;;31.67;15.63;;;6.20;99.90;;;;;;5051316;28;20442;-79
2021/03/04 05:07:25;;;;;;;31.53;15.00;;;6.30;99.90;;;;;;5043401;28;20224;-79
2021/03/04 05:09:53;;;;;;;33.93;14.37;;;6.30;99.90;;;;;;5050001;28;20216;-79
2021/03/04 05:12:19;;;;;;;27.90;14.27;;;6.50;99.90;;;;;;5048999;28;20699;-79
2021/03/04 05:14:47;;;;;;;35.07;15.60;;;6.50;99.90;;;;;;5043962;28;20253;-79
2021/03/04 05:17:13;;;;;;;28.27;13.77;;;6.50;99.90;;;;;;5061606;28;20199;-78
2021/03/04 05:19:40;;;;;;;30.13;13.90;;;6.50;99.90;;;;;;5048835;28;20264;-79
2021/03/04 05:22:07;;;;;;;29.60;13.27;;;6.30;99.90;;;;;;5051450;28;20212;-79
2021/03/04 05:24:33;;;;;;;33.90;14.73;;;6.40;99.90;;;;;;5048940;28;20207;-79
2021/03/04 05:26:59;;;;;;;41.30;16.13;;;6.30;99.90;;;;;;5053709;28;20260;-79
2021/03/04 05:29:26;;;;;;;34.67;15.40;;;6.50;99.90;;;;;;5051169;28;20207;-79
2021/03/04 05:31:52;;;;;;;36.70;15.10;;;6.50;99.90;;;;;;5031350;28;20191;-79
2021/03/04 05:34:19;;;;;;;34.90;17.20;;;6.30;99.90;;;;;;5050788;28;20372;-79
2021/03/04 05:36:45;;;;;;;37.03;15.67;;;6.30;99.90;;;;;;5031539;28;20200;-78
2021/03/04 05:39:12;;;;;;;42.27;17.37;;;6.20;99.90;;;;;;5067254;28;20697;-79
2021/03/04 05:41:38;;;;;;;41.23;17.70;;;6.30;99.90;;;;;;5059400;28;20608;-79
2021/03/04 05:44:05;;;;;;;46.07;18.13;;;6.30;99.90;;;;;;5046167;28;20197;-79
2021/03/04 05:46:34;;;;;;;46.67;18.93;;;6.20;99.90;;;;;;5028896;28;20288;-79
2021/03/04 05:49:02;;;;;;;47.00;20.57;;;6.10;99.90;;;;;;5056658;28;20291;-77
2021/03/04 05:51:36;;;;;;;45.83;19.10;;;6.10;99.90;;;;;;5060332;28;20646;-80
2021/03/04 05:54:06;;;;;;;53.50;21.03;;;6.20;99.90;;;;;;5047632;28;20201;-79
2021/03/04 05:56:37;;;;;;;51.93;22.33;;;6.10;99.90;;;;;;5042405;28;20206;-80
2021/03/04 05:59:06;;;;;;;52.77;22.07;;;6.10;99.90;;;;;;5059734;28;20274;-79
2021/03/04 06:01:33;;;;;;;58.20;21.03;;;6.30;99.90;;;;;;5062535;28;20211;-80
2021/03/04 06:04:00;;;;;;;54.13;21.73;;;6.40;99.90;;;;;;5029792;28;20310;-79
2021/03/04 06:06:26;;;;;;;55.10;18.83;;;6.20;99.90;;;;;;5054191;28;20314;-80
2021/03/04 06:08:53;;;;;;;45.90;20.37;;;6.10;99.90;;;;;;5050438;28;20297;-79
2021/03/04 06:11:19;;;;;;;47.97;19.63;;;6.10;99.90;;;;;;5047638;28;20285;-80
2021/03/04 06:13:46;;;;;;;53.30;21.63;;;6.10;99.90;;;;;;5035282;28;20259;-79
2021/03/04 06:16:13;;;;;;;51.77;20.27;;;6.00;99.90;;;;;;5044854;28;20563;-79
2021/03/04 06:18:43;;;;;;;53.00;21.73;;;6.10;99.90;;;;;;5069167;28;20210;-79
2021/03/04 06:21:24;;;;;;;63.13;22.80;;;6.20;99.90;;;;;;5066235;28;20240;-79
2021/03/04 06:23:51;;;;;;;54.87;21.57;;;6.30;99.90;;;;;;5052377;28;20298;-78
2021/03/04 06:26:39;;;;;;;54.33;21.30;;;6.20;99.90;;;;;;5027478;28;20201;-80
2021/03/04 06:29:17;;;;;;;57.23;21.90;;;6.20;99.90;;;;;;5048539;28;20295;-80
2021/03/04 06:31:44;;;;;;;51.90;21.40;;;6.30;99.90;;;;;;5049565;28;20210;-81
2021/03/04 06:34:20;;;;;;;51.27;22.70;;;6.10;99.90;;;;;;5052327;28;20672;-80
2021/03/04 06:36:54;;;;;;;50.40;20.93;;;6.10;99.90;;;;;;5047384;28;20274;-80
2021/03/04 06:39:21;;;;;;;56.07;20.77;;;6.00;99.90;;;;;;5046746;28;20198;-80
2021/03/04 06:42:03;;;;;;;58.03;21.83;;;6.10;99.90;;;;;;5050088;28;20574;-80
2021/03/04 06:44:47;;;;;;;56.73;20.33;;;6.20;99.90;;;;;;5045865;28;20725;-81
2021/03/04 06:47:27;;;;;;;49.10;20.10;;;6.30;99.90;;;;;;5039491;28;20289;-80
2021/03/04 06:49:56;;;;;;;45.27;19.43;;;6.40;99.90;;;;;;5050542;28;20591;-81
2021/03/04 06:52:39;;;;;;;51.60;19.23;;;6.30;99.90;;;;;;5065921;28;20223;-82
2021/03/04 06:55:13;;;;;;;50.90;19.43;;;6.30;99.90;;;;;;5033707;28;20206;-82
2021/03/04 06:57:40;;;;;;;50.07;20.33;;;6.20;99.90;;;;;;5060246;28;20257;-80
2021/03/04 07:00:17;;;;;;;48.60;19.23;;;6.40;99.90;;;;;;5050491;28;20206;-77
2021/03/04 07:02:51;;;;;;;49.23;20.50;;;6.40;99.90;;;;;;5069078;28;20226;-80
2021/03/04 07:05:18;;;;;;;48.77;19.03;;;6.20;99.90;;;;;;5053554;28;20260;-80
2021/03/04 07:07:58;;;;;;;45.47;20.00;;;6.30;99.90;;;;;;5050005;28;20297;-81
2021/03/04 07:10:29;;;;;;;46.70;20.23;;;6.20;99.90;;;;;;5048930;28;20205;-82
2021/03/04 07:12:58;;;;;;;51.63;21.60;;;6.10;99.90;;;;;;5049853;28;20219;-82
2021/03/04 07:15:25;;;;;;;51.03;19.97;;;6.30;99.90;;;;;;5053825;28;20251;-82
2021/03/04 07:17:51;;;;;;;50.63;20.37;;;6.10;99.90;;;;;;5032753;28;20192;-80
2021/03/04 07:20:20;;;;;;;46.57;20.53;;;6.10;99.90;;;;;;5029987;28;20717;-77
2021/03/04 07:23:03;;;;;;;53.67;20.90;;;6.40;99.90;;;;;;5061530;28;20233;-77
2021/03/04 07:25:31;;;;;;;47.47;17.87;;;6.40;99.90;;;;;;5050145;28;20295;-78
2021/03/04 07:27:57;;;;;;;47.07;19.00;;;6.20;99.90;;;;;;5061487;28;20301;-73
2021/03/04 07:30:24;;;;;;;42.10;16.97;;;6.10;99.90;;;;;;5049559;28;20212;-74
2021/03/04 07:32:51;;;;;;;38.10;16.77;;;5.80;99.90;;;;;;5055806;28;20266;-74
2021/03/04 07:35:18;;;;;;;42.07;17.73;;;5.70;99.90;;;;;;5033046;28;20281;-75
2021/03/04 07:37:45;;;;;;;40.10;17.27;;;5.70;99.90;;;;;;5048434;28;20577;-73
2021/03/04 07:40:14;;;;;;;43.87;17.97;;;5.60;99.90;;;;;;5055792;28;20269;-75
2021/03/04 07:42:41;;;;;;;38.93;17.87;;;5.60;99.90;;;;;;5043950;28;20291;-73
2021/03/04 07:45:15;;;;;;;42.30;16.23;;;5.60;99.90;;;;;;5045767;28;20264;-74
2021/03/04 07:47:42;;;;;;;41.07;16.80;;;5.60;99.90;;;;;;5049394;28;20199;-72
2021/03/04 07:50:20;;;;;;;46.53;17.10;;;5.60;99.90;;;;;;5057497;28;20195;-72
2021/03/04 07:52:47;;;;;;;39.13;16.47;;;5.60;99.90;;;;;;5036584;28;20298;-72
2021/03/04 07:55:15;;;;;;;38.43;15.63;;;5.60;99.90;;;;;;5055707;28;20282;-73
2021/03/04 07:57:46;;;;;;;45.30;16.17;;;5.50;99.90;;;;;;5040183;28;20205;-74
2021/03/04 08:00:17;;;;;;;40.60;16.73;;;5.30;99.90;;;;;;5028103;28;20237;-74
2021/03/04 08:02:44;;;;;;;41.00;15.83;;;5.50;99.90;;;;;;5056189;28;20645;-73
2021/03/04 08:05:15;;;;;;;45.03;17.83;;;5.40;99.90;;;;;;5049770;28;20258;-73
2021/03/04 08:07:47;;;;;;;39.73;16.17;;;5.60;99.90;;;;;;5052841;28;20237;-74
2021/03/04 08:10:21;;;;;;;36.70;16.53;;;5.70;99.90;;;;;;5052748;28;20306;-73
2021/03/04 08:13:00;;;;;;;40.40;17.10;;;5.70;99.90;;;;;;5057438;28;20218;-73
2021/03/04 08:15:34;;;;;;;36.40;17.23;;;5.40;99.90;;;;;;5041235;28;20277;-73
2021/03/04 08:18:04;;;;;;;42.70;16.73;;;5.50;99.90;;;;;;5043136;28;20213;-73
2021/03/04 08:20:31;;;;;;;45.87;17.83;;;5.50;99.90;;;;;;5052184;28;20207;-72
2021/03/04 08:22:58;;;;;;;42.27;17.43;;;5.60;99.90;;;;;;5033412;28;20700;-74
2021/03/04 08:25:30;;;;;;;38.27;17.07;;;5.60;99.90;;;;;;5037900;28;20198;-73
2021/03/04 08:28:02;;;;;;;39.93;14.83;;;5.70;99.90;;;;;;5054623;28;20220;-72
2021/03/04 08:30:31;;;;;;;37.53;15.40;;;5.60;99.90;;;;;;5039085;28;20292;-73
2021/03/04 08:33:25;;;;;;;40.53;16.37;;;5.70;99.90;;;;;;5059347;28;20291;-74
2021/03/04 08:35:53;;;;;;;33.70;15.53;;;5.50;99.90;;;;;;5042539;28;20231;-73
2021/03/04 08:38:20;;;;;;;38.03;16.63;;;5.60;99.90;;;;;;5055185;28;20294;-73
2021/03/04 08:40:58;;;;;;;35.33;15.87;;;5.70;99.90;;;;;;5055128;28;20565;-73
2021/03/04 08:43:29;;;;;;;39.30;17.03;;;5.80;99.90;;;;;;5041576;28;20420;-73
2021/03/04 08:45:57;;;;;;;38.30;16.37;;;5.80;99.90;;;;;;5056404;28;20294;-73
2021/03/04 08:48:25;;;;;;;36.40;16.13;;;5.70;99.90;;;;;;5038815;28;20272;-72
2021/03/04 08:50:54;;;;;;;37.40;15.07;;;5.80;99.90;;;;;;5023619;28;20707;-72
2021/03/04 08:53:21;;;;;;;32.63;14.40;;;5.80;99.90;;;;;;5039489;28;20209;-73
2021/03/04 08:55:50;;;;;;;41.67;16.13;;;5.60;99.90;;;;;;5045728;28;20211;-74
2021/03/04 08:58:20;;;;;;;37.40;16.07;;;5.70;99.90;;;;;;5048425;28;20563;-73
2021/03/04 09:00:54;;;;;;;39.40;16.67;;;5.90;99.90;;;;;;5053119;28;20203;-73
2021/03/04 09:03:26;;;;;;;37.60;16.03;;;5.80;99.90;;;;;;5054437;28;20383;-74
2021/03/04 09:06:07;;;;;;;35.80;14.90;;;5.90;99.90;;;;;;5042448;28;20230;-73
2021/03/04 09:08:41;;;;;;;38.50;16.80;;;6.10;99.90;;;;;;5053226;28;20580;-74
2021/03/04 09:11:10;;;;;;;36.03;15.93;;;6.20;99.90;;;;;;5057714;28;20199;-73
2021/03/04 09:13:37;;;;;;;40.17;15.73;;;6.00;99.90;;;;;;5045510;28;20287;-72
2021/03/04 09:16:07;;;;;;;29.73;14.67;;;5.90;99.90;;;;;;5062353;28;20258;-73
2021/03/04 09:18:46;;;;;;;37.70;15.67;;;5.80;99.90;;;;;;5057797;28;20206;-73
2021/03/04 09:21:13;;;;;;;40.77;16.30;;;5.80;99.90;;;;;;5059169;28;20587;-73
2021/03/04 09:23:41;;;;;;;43.00;18.20;;;6.00;99.90;;;;;;5027024;28;20244;-74
2021/03/04 09:26:08;;;;;;;47.23;17.60;;;6.00;99.90;;;;;;5060050;28;20257;-74
2021/03/04 09:28:37;;;;;;;34.87;15.37;;;6.10;99.90;;;;;;5053265;28;20202;-73
2021/03/04 09:31:15;;;;;;;44.20;17.23;;;6.10;99.90;;;;;;5060899;28;20208;-73
2021/03/04 09:33:42;;;;;;;39.33;16.83;;;6.10;99.90;;;;;;5059504;28;20216;-73
2021/03/04 09:36:10;;;;;;;45.17;18.47;;;6.10;99.90;;;;;;5057594;28;20266;-73
2021/03/04 09:38:37;;;;;;;41.10;16.60;;;6.00;99.90;;;;;;5058412;28;20234;-74
2021/03/04 09:41:14;;;;;;;34.90;15.37;;;6.10;99.90;;;;;;5057201;28;20221;-73
2021/03/04 09:43:50;;;;;;;37.53;17.17;;;6.10;99.90;;;;;;5061296;28;20560;-73
2021/03/04 09:46:26;;;;;;;42.63;16.83;;;6.10;99.90;;;;;;5043944;28;20205;-73
2021/03/04 09:48:53;;;;;;;44.73;16.60;;;6.10;99.90;;;;;;5054064;28;20204;-73
2021/03/04 09:51:41;;;;;;;36.07;17.03;;;5.90;99.90;;;;;;5052932;28;20217;-73
2021/03/04 09:54:09;;;;;;;44.47;18.40;;;6.00;99.90;;;;;;5042508;28;20206;-74
2021/03/04 09:57:08;;;;;;;42.37;16.43;;;6.10;99.90;;;;;;5049119;28;20206;-74
2021/03/04 09:59:49;;;;;;;40.97;16.67;;;6.10;99.90;;;;;;5060996;28;20621;-73
2021/03/04 10:02:16;;;;;;;42.97;17.70;;;6.20;99.90;;;;;;5062888;28;20217;-73
2021/03/04 10:05:03;;;;;;;41.53;16.63;;;6.10;99.90;;;;;;5034369;28;20214;-73
2021/03/04 10:07:31;;;;;;;45.00;17.07;;;6.30;99.90;;;;;;5048967;28;20250;-73
2021/03/04 10:09:59;;;;;;;42.27;17.20;;;6.20;99.90;;;;;;5046774;28;20197;-73
2021/03/04 10:12:26;;;;;;;39.47;16.90;;;6.20;99.90;;;;;;5062882;28;20266;-72
2021/03/04 10:14:54;;;;;;;38.23;16.53;;;6.30;99.90;;;;;;5049902;28;20305;-73
2021/03/04 10:17:22;;;;;;;44.77;17.50;;;6.20;99.90;;;;;;5061975;28;20284;-73
2021/03/04 10:19:49;;;;;;;40.77;16.50;;;6.20;99.90;;;;;;5056553;28;20266;-73
2021/03/04 10:22:15;;;;;;;36.43;15.83;;;6.10;99.90;;;;;;5059244;28;20250;-73
2021/03/04 10:24:42;;;;;;;38.83;17.30;;;5.90;99.90;;;;;;5060371;28;20278;-72
2021/03/04 10:27:08;;;;;;;42.27;15.47;;;5.80;99.90;;;;;;5033409;28;20229;-73
2021/03/04 10:29:37;;;;;;;48.27;18.20;;;6.10;99.90;;;;;;5055825;28;20562;-73
2021/03/04 10:32:05;;;;;;;41.80;16.03;;;6.00;99.90;;;;;;5060641;28;20202;-73
2021/03/04 10:34:32;;;;;;;48.70;16.97;;;6.10;99.90;;;;;;5059477;28;20341;-74
2021/03/04 10:36:58;;;;;;;46.93;18.50;;;6.20;99.90;;;;;;5048814;28;20201;-73
2021/03/04 10:39:24;;;;;;;37.17;16.10;;;6.20;99.90;;;;;;5060961;28;20214;-73
2021/03/04 10:41:51;;;;;;;41.77;16.13;;;6.20;99.90;;;;;;5061411;28;20206;-72
2021/03/04 10:44:17;;;;;;;57.73;18.63;;;6.40;99.90;;;;;;5058620;28;20220;-73
2021/03/04 10:46:44;;;;;;;47.63;17.87;;;6.50;99.90;;;;;;5049133;28;20263;-73
2021/03/04 10:49:10;;;;;;;48.80;18.93;;;6.20;99.90;;;;;;5050307;28;20713;-73
2021/03/04 10:51:36;;;;;;;50.07;17.93;;;6.30;99.90;;;;;;5063630;28;20576;-73
2021/03/04 10:54:03;;;;;;;39.50;17.23;;;6.20;99.90;;;;;;5046471;28;20220;-74
2021/03/04 10:56:29;;;;;;;42.57;17.50;;;6.10;99.90;;;;;;5046103;28;20233;-74
2021/03/04 10:58:56;;;;;;;39.27;16.20;;;6.30;99.90;;;;;;5044930;28;20208;-73
2021/03/04 11:01:23;;;;;;;42.60;15.53;;;6.10;99.90;;;;;;5064892;28;20282;-73
2021/03/04 11:03:50;;;;;;;43.07;16.27;;;6.20;99.90;;;;;;5049521;28;20221;-73
2021/03/04 11:06:18;;;;;;;44.70;16.67;;;6.20;99.90;;;;;;5064717;28;20200;-73
2021/03/04 11:08:44;;;;;;;49.83;16.60;;;6.30;99.90;;;;;;5062697;28;20210;-73
2021/03/04 11:11:11;;;;;;;41.50;17.03;;;6.40;99.90;;;;;;5046568;28;20235;-73
2021/03/04 11:13:37;;;;;;;44.57;17.53;;;6.60;99.90;;;;;;5060453;28;20248;-73
2021/03/04 11:16:04;;;;;;;43.70;17.63;;;6.40;99.90;;;;;;5045346;28;20730;-73
2021/03/04 11:18:30;;;;;;;43.63;15.23;;;6.20;99.90;;;;;;5063554;28;20303;-73
2021/03/04 11:20:57;;;;;;;38.53;16.80;;;6.20;99.90;;;;;;5062490;28;20200;-73
2021/03/04 11:23:23;;;;;;;36.20;15.20;;;6.30;99.90;;;;;;5060291;28;20671;-73
2021/03/04 11:25:59;;;;;;;33.17;13.40;;;6.20;99.90;;;;;;5062209;28;20284;-73
2021/03/04 11:28:26;;;;;;;36.47;14.60;;;6.20;99.90;;;;;;5044947;28;20195;-72
2021/03/04 11:30:52;;;;;;;29.40;13.03;;;6.20;99.90;;;;;;5060647;28;20323;-73
2021/03/04 11:33:20;;;;;;;33.50;14.37;;;6.40;99.90;;;;;;5046113;28;20211;-73
2021/03/04 11:35:47;;;;;;;35.40;14.57;;;6.40;99.90;;;;;;5060883;28;20229;-73
2021/03/04 11:38:14;;;;;;;32.20;11.80;;;6.40;99.90;;;;;;5062377;28;20287;-72
2021/03/04 11:40:40;;;;;;;28.87;12.73;;;6.30;99.90;;;;;;5053813;28;20211;-73
2021/03/04 11:43:07;;;;;;;33.90;14.07;;;6.10;99.90;;;;;;5043735;28;20210;-73
2021/03/04 11:45:33;;;;;;;28.33;12.00;;;6.20;99.90;;;;;;5057395;28;20333;-73
2021/03/04 11:47:59;;;;;;;30.50;13.00;;;6.30;99.90;;;;;;5054936;28;20229;-72
2021/03/04 11:50:27;;;;;;;26.60;12.77;;;6.10;99.90;;;;;;5052266;28;20966;-74
2021/03/04 11:52:53;;;;;;;31.27;12.73;;;6.20;99.90;;;;;;5025691;28;20222;-71
2021/03/04 11:55:20;;;;;;;26.47;11.73;;;6.30;99.90;;;;;;5055460;28;20628;-73
2021/03/04 11:57:46;;;;;;;22.10;10.40;;;6.20;99.90;;;;;;5059069;28;20617;-71
2021/03/04 12:00:14;;;;;;;23.60;10.80;;;6.20;99.90;;;;;;5043286;28;20206;-71
2021/03/04 12:02:41;;;;;;;21.13;9.37;;;6.30;99.90;;;;;;5052481;28;20316;-71
2021/03/04 12:05:07;;;;;;;21.67;9.77;;;6.20;99.90;;;;;;5060234;28;20203;-72
2021/03/04 12:07:34;;;;;;;22.33;9.90;;;6.20;99.90;;;;;;5044807;28;20314;-72
2021/03/04 12:10:01;;;;;;;25.30;10.30;;;6.20;99.90;;;;;;5021991;28;20373;-71
2021/03/04 12:12:27;;;;;;;17.30;8.37;;;6.20;99.90;;;;;;5054175;28;20627;-70
2021/03/04 12:14:54;;;;;;;20.37;9.03;;;6.00;99.90;;;;;;5030298;28;20231;-72
2021/03/04 12:17:20;;;;;;;18.33;8.37;;;6.10;99.90;;;;;;5062110;28;20290;-72
2021/03/04 12:19:47;;;;;;;26.73;9.90;;;6.00;99.90;;;;;;5060490;28;20763;-73
2021/03/04 12:22:13;;;;;;;17.73;8.57;;;6.00;99.90;;;;;;5063623;28;20208;-71
2021/03/04 12:24:40;;;;;;;20.50;8.83;;;6.10;99.90;;;;;;5059252;28;20563;-71
2021/03/04 12:27:07;;;;;;;20.53;8.40;;;6.00;99.90;;;;;;5059305;28;20302;-70
2021/03/04 12:29:33;;;;;;;20.07;9.70;;;6.10;99.90;;;;;;5028341;28;20225;-73
2021/03/04 12:32:00;;;;;;;19.60;8.30;;;6.10;99.90;;;;;;5047812;28;20221;-74
2021/03/04 12:34:26;;;;;;;16.53;8.37;;;6.10;99.90;;;;;;5043389;28;20206;-70
2021/03/04 12:36:52;;;;;;;22.00;8.57;;;6.20;99.90;;;;;;5061028;28;20199;-70
2021/03/04 12:39:19;;;;;;;17.30;8.43;;;6.40;99.90;;;;;;5048208;28;20249;-71
2021/03/04 12:41:45;;;;;;;16.13;7.83;;;6.40;99.90;;;;;;5061815;28;20213;-71
2021/03/04 12:44:12;;;;;;;17.00;7.37;;;6.30;99.90;;;;;;5059946;28;20228;-71
2021/03/04 12:46:39;;;;;;;16.70;7.67;;;6.00;99.90;;;;;;5060121;28;20268;-72